sensor_id;sensor_type;location;lat;lon;timestamp;P1;durP1;ratioP1;P2;durP2;ratioP2
40953;SDS011;26686;50.130;8.710;2024-03-22T00:02:17;13.07;;;11.73;;
40953;SDS011;26686;50.130;8.710;2024-03-22T00:07:17;14.07;;;11.82;;
40953;SDS011;26686;50.130;8.710;2024-03-22T00:12:18;15.07;;;12.88;;
40953;SDS011;26686;50.130;8.710;2024-03-22T00:17:18;12.55;;;11.25;;
40953;SDS011;26686;50.130;8.710;2024-03-22T00:22:18;13.60;;;12.20;;
40953;SDS011;26686;50.130;8.710;2024-03-22T00:27:20;13.23;;;11.90;;
40953;SDS011;26686;50.130;8.710;2024-03-22T00:32:20;16.10;;;12.15;;
40953;SDS011;26686;50.130;8.710;2024-03-22T00:37:21;17.27;;;14.27;;
40953;SDS011;26686;50.130;8.710;2024-03-22T00:42:21;14.10;;;12.70;;
40953;SDS011;26686;50.130;8.710;2024-03-22T00:47:21;14.13;;;12.68;;
40953;SDS011;26686;50.130;8.710;2024-03-22T00:52:22;15.50;;;12.50;;
40953;SDS011;26686;50.130;8.710;2024-03-22T00:57:24;15.88;;;12.63;;
40953;SDS011;26686;50.130;8.710;2024-03-22T01:02:24;16.85;;;13.70;;
40953;SDS011;26686;50.130;8.710;2024-03-22T01:07:25;14.27;;;12.88;;
40953;SDS011;26686;50.130;8.710;2024-03-22T01:12:25;13.93;;;12.30;;
40953;SDS011;26686;50.130;8.710;2024-03-22T01:17:26;13.48;;;12.18;;
40953;SDS011;26686;50.130;8.710;2024-03-22T01:22:26;13.52;;;12.02;;
40953;SDS011;26686;50.130;8.710;2024-03-22T01:27:27;14.10;;;12.60;;
40953;SDS011;26686;50.130;8.710;2024-03-22T01:32:32;14.37;;;12.60;;
40953;SDS011;26686;50.130;8.710;2024-03-22T01:37:32;15.00;;;13.20;;
40953;SDS011;26686;50.130;8.710;2024-03-22T01:42:33;15.40;;;13.80;;
40953;SDS011;26686;50.130;8.710;2024-03-22T01:47:33;15.13;;;13.60;;
40953;SDS011;26686;50.130;8.710;2024-03-22T01:52:34;14.25;;;12.75;;
40953;SDS011;26686;50.130;8.710;2024-03-22T01:57:36;16.25;;;14.63;;
40953;SDS011;26686;50.130;8.710;2024-03-22T02:02:38;17.05;;;14.13;;
40953;SDS011;26686;50.130;8.710;2024-03-22T02:07:38;17.13;;;13.90;;
40953;SDS011;26686;50.130;8.710;2024-03-22T02:12:40;16.40;;;14.48;;
40953;SDS011;26686;50.130;8.710;2024-03-22T02:17:41;14.38;;;12.82;;
40953;SDS011;26686;50.130;8.710;2024-03-22T02:22:41;13.63;;;12.23;;
40953;SDS011;26686;50.130;8.710;2024-03-22T02:27:42;12.98;;;11.45;;
40953;SDS011;26686;50.130;8.710;2024-03-22T02:32:43;12.82;;;11.52;;
40953;SDS011;26686;50.130;8.710;2024-03-22T02:37:44;14.55;;;13.05;;
40953;SDS011;26686;50.130;8.710;2024-03-22T02:42:44;14.77;;;12.68;;
40953;SDS011;26686;50.130;8.710;2024-03-22T02:47:45;15.02;;;13.43;;
40953;SDS011;26686;50.130;8.710;2024-03-22T02:52:45;15.00;;;12.65;;
40953;SDS011;26686;50.130;8.710;2024-03-22T02:57:46;14.50;;;12.85;;
40953;SDS011;26686;50.130;8.710;2024-03-22T03:02:46;14.25;;;11.95;;
40953;SDS011;26686;50.130;8.710;2024-03-22T03:07:46;14.02;;;11.90;;
40953;SDS011;26686;50.130;8.710;2024-03-22T03:12:47;12.70;;;11.40;;
40953;SDS011;26686;50.130;8.710;2024-03-22T03:17:48;14.73;;;12.57;;
40953;SDS011;26686;50.130;8.710;2024-03-22T03:22:48;14.95;;;13.25;;
40953;SDS011;26686;50.130;8.710;2024-03-22T03:27:48;16.65;;;14.68;;
40953;SDS011;26686;50.130;8.710;2024-03-22T03:32:50;15.68;;;14.00;;
40953;SDS011;26686;50.130;8.710;2024-03-22T03:37:50;20.42;;;15.55;;
40953;SDS011;26686;50.130;8.710;2024-03-22T03:42:51;16.45;;;14.35;;
40953;SDS011;26686;50.130;8.710;2024-03-22T03:47:52;16.73;;;14.60;;
40953;SDS011;26686;50.130;8.710;2024-03-22T03:52:53;16.95;;;14.38;;
40953;SDS011;26686;50.130;8.710;2024-03-22T03:57:53;17.60;;;14.32;;
40953;SDS011;26686;50.130;8.710;2024-03-22T04:02:54;16.73;;;14.55;;
40953;SDS011;26686;50.130;8.710;2024-03-22T04:07:54;15.88;;;14.23;;
40953;SDS011;26686;50.130;8.710;2024-03-22T04:12:55;15.52;;;13.55;;
40953;SDS011;26686;50.130;8.710;2024-03-22T04:17:56;16.50;;;14.77;;
40953;SDS011;26686;50.130;8.710;2024-03-22T04:22:56;15.20;;;13.57;;
40953;SDS011;26686;50.130;8.710;2024-03-22T04:27:57;17.38;;;14.05;;
40953;SDS011;26686;50.130;8.710;2024-03-22T04:32:57;16.75;;;13.10;;
40953;SDS011;26686;50.130;8.710;2024-03-22T04:37:58;16.27;;;14.15;;
40953;SDS011;26686;50.130;8.710;2024-03-22T04:42:58;16.23;;;14.52;;
40953;SDS011;26686;50.130;8.710;2024-03-22T04:48:00;16.52;;;14.18;;
40953;SDS011;26686;50.130;8.710;2024-03-22T04:53:04;17.10;;;14.55;;
40953;SDS011;26686;50.130;8.710;2024-03-22T04:58:06;15.25;;;12.68;;
40953;SDS011;26686;50.130;8.710;2024-03-22T05:03:07;15.48;;;13.85;;
40953;SDS011;26686;50.130;8.710;2024-03-22T05:08:08;15.52;;;12.85;;
40953;SDS011;26686;50.130;8.710;2024-03-22T05:13:10;18.35;;;13.40;;
40953;SDS011;26686;50.130;8.710;2024-03-22T05:18:10;13.65;;;12.02;;
40953;SDS011;26686;50.130;8.710;2024-03-22T05:23:11;15.38;;;13.77;;
40953;SDS011;26686;50.130;8.710;2024-03-22T05:28:11;15.20;;;13.65;;
40953;SDS011;26686;50.130;8.710;2024-03-22T05:33:12;14.30;;;12.25;;
40953;SDS011;26686;50.130;8.710;2024-03-22T05:38:12;13.05;;;11.73;;
40953;SDS011;26686;50.130;8.710;2024-03-22T05:43:13;13.35;;;11.05;;
40953;SDS011;26686;50.130;8.710;2024-03-22T05:48:14;13.85;;;12.38;;
40953;SDS011;26686;50.130;8.710;2024-03-22T05:53:14;12.27;;;10.23;;
40953;SDS011;26686;50.130;8.710;2024-03-22T05:58:15;15.20;;;11.63;;
40953;SDS011;26686;50.130;8.710;2024-03-22T06:03:15;15.85;;;11.80;;
40953;SDS011;26686;50.130;8.710;2024-03-22T06:08:15;14.85;;;11.50;;
40953;SDS011;26686;50.130;8.710;2024-03-22T06:18:20;16.33;;;11.83;;
40953;SDS011;26686;50.130;8.710;2024-03-22T06:23:21;15.57;;;11.15;;
40953;SDS011;26686;50.130;8.710;2024-03-22T06:28:22;13.25;;;10.60;;
40953;SDS011;26686;50.130;8.710;2024-03-22T06:33:23;11.98;;;10.63;;
40953;SDS011;26686;50.130;8.710;2024-03-22T06:38:23;11.77;;;10.27;;
40953;SDS011;26686;50.130;8.710;2024-03-22T06:43:24;14.43;;;10.88;;
40953;SDS011;26686;50.130;8.710;2024-03-22T06:48:25;12.82;;;11.43;;
40953;SDS011;26686;50.130;8.710;2024-03-22T06:53:26;13.23;;;11.13;;
40953;SDS011;26686;50.130;8.710;2024-03-22T06:58:27;13.27;;;10.57;;
40953;SDS011;26686;50.130;8.710;2024-03-22T07:03:28;12.70;;;10.05;;
40953;SDS011;26686;50.130;8.710;2024-03-22T07:08:30;12.38;;;10.30;;
40953;SDS011;26686;50.130;8.710;2024-03-22T07:13:30;12.73;;;10.15;;
40953;SDS011;26686;50.130;8.710;2024-03-22T07:18:31;11.52;;;9.75;;
40953;SDS011;26686;50.130;8.710;2024-03-22T07:23:32;11.48;;;10.27;;
40953;SDS011;26686;50.130;8.710;2024-03-22T07:28:33;13.00;;;10.85;;
40953;SDS011;26686;50.130;8.710;2024-03-22T07:33:40;13.93;;;10.90;;
40953;SDS011;26686;50.130;8.710;2024-03-22T07:38:41;12.68;;;10.88;;
40953;SDS011;26686;50.130;8.710;2024-03-22T07:43:41;14.20;;;9.45;;
40953;SDS011;26686;50.130;8.710;2024-03-22T07:48:42;12.50;;;10.23;;
40953;SDS011;26686;50.130;8.710;2024-03-22T07:53:42;12.55;;;10.15;;
40953;SDS011;26686;50.130;8.710;2024-03-22T07:58:42;16.50;;;11.02;;
40953;SDS011;26686;50.130;8.710;2024-03-22T08:03:43;13.55;;;10.32;;
40953;SDS011;26686;50.130;8.710;2024-03-22T08:08:44;11.82;;;9.80;;
40953;SDS011;26686;50.130;8.710;2024-03-22T08:13:44;14.65;;;10.27;;
40953;SDS011;26686;50.130;8.710;2024-03-22T08:18:45;14.13;;;11.07;;
40953;SDS011;26686;50.130;8.710;2024-03-22T08:23:45;19.95;;;10.70;;
40953;SDS011;26686;50.130;8.710;2024-03-22T08:28:46;13.35;;;10.70;;
40953;SDS011;26686;50.130;8.710;2024-03-22T08:33:47;12.48;;;9.55;;
40953;SDS011;26686;50.130;8.710;2024-03-22T08:38:48;12.68;;;9.73;;
40953;SDS011;26686;50.130;8.710;2024-03-22T08:43:48;11.77;;;9.27;;
40953;SDS011;26686;50.130;8.710;2024-03-22T08:48:50;12.07;;;9.90;;
40953;SDS011;26686;50.130;8.710;2024-03-22T08:53:50;13.35;;;9.60;;
40953;SDS011;26686;50.130;8.710;2024-03-22T08:58:51;10.13;;;8.65;;
40953;SDS011;26686;50.130;8.710;2024-03-22T09:03:51;11.25;;;9.07;;
40953;SDS011;26686;50.130;8.710;2024-03-22T09:08:52;14.52;;;9.18;;
40953;SDS011;26686;50.130;8.710;2024-03-22T09:13:55;9.40;;;7.38;;
40953;SDS011;26686;50.130;8.710;2024-03-22T09:18:55;8.05;;;7.25;;
40953;SDS011;26686;50.130;8.710;2024-03-22T09:23:58;9.02;;;7.57;;
40953;SDS011;26686;50.130;8.710;2024-03-22T09:28:58;10.02;;;6.88;;
40953;SDS011;26686;50.130;8.710;2024-03-22T09:33:59;8.52;;;6.70;;
40953;SDS011;26686;50.130;8.710;2024-03-22T09:39:01;7.88;;;6.78;;
40953;SDS011;26686;50.130;8.710;2024-03-22T09:44:04;8.65;;;7.38;;
40953;SDS011;26686;50.130;8.710;2024-03-22T09:49:07;10.60;;;7.85;;
40953;SDS011;26686;50.130;8.710;2024-03-22T09:54:10;8.43;;;7.40;;
40953;SDS011;26686;50.130;8.710;2024-03-22T09:59:10;10.68;;;7.03;;
40953;SDS011;26686;50.130;8.710;2024-03-22T10:04:11;7.53;;;6.38;;
40953;SDS011;26686;50.130;8.710;2024-03-22T10:09:11;9.27;;;6.65;;
40953;SDS011;26686;50.130;8.710;2024-03-22T10:14:12;9.05;;;7.63;;
40953;SDS011;26686;50.130;8.710;2024-03-22T10:19:13;11.10;;;8.45;;
40953;SDS011;26686;50.130;8.710;2024-03-22T10:24:14;7.18;;;6.40;;
40953;SDS011;26686;50.130;8.710;2024-03-22T10:29:15;9.93;;;6.53;;
40953;SDS011;26686;50.130;8.710;2024-03-22T10:34:16;6.68;;;5.40;;
40953;SDS011;26686;50.130;8.710;2024-03-22T10:39:18;7.25;;;5.72;;
40953;SDS011;26686;50.130;8.710;2024-03-22T10:44:19;6.03;;;5.43;;
40953;SDS011;26686;50.130;8.710;2024-03-22T10:49:21;5.28;;;4.78;;
40953;SDS011;26686;50.130;8.710;2024-03-22T10:54:23;7.45;;;5.53;;
40953;SDS011;26686;50.130;8.710;2024-03-22T10:59:34;7.13;;;5.47;;
40953;SDS011;26686;50.130;8.710;2024-03-22T11:04:35;7.90;;;5.38;;
40953;SDS011;26686;50.130;8.710;2024-03-22T11:09:40;6.47;;;5.40;;
40953;SDS011;26686;50.130;8.710;2024-03-22T11:14:40;7.60;;;5.47;;
40953;SDS011;26686;50.130;8.710;2024-03-22T11:19:40;6.70;;;5.75;;
40953;SDS011;26686;50.130;8.710;2024-03-22T11:24:43;6.70;;;5.22;;
40953;SDS011;26686;50.130;8.710;2024-03-22T11:29:44;8.85;;;6.35;;
40953;SDS011;26686;50.130;8.710;2024-03-22T11:34:46;8.55;;;5.97;;
40953;SDS011;26686;50.130;8.710;2024-03-22T11:39:48;6.97;;;6.28;;
40953;SDS011;26686;50.130;8.710;2024-03-22T11:44:48;8.50;;;6.22;;
40953;SDS011;26686;50.130;8.710;2024-03-22T11:49:50;9.25;;;6.88;;
40953;SDS011;26686;50.130;8.710;2024-03-22T11:54:51;8.10;;;7.00;;
40953;SDS011;26686;50.130;8.710;2024-03-22T11:59:58;9.77;;;7.07;;
40953;SDS011;26686;50.130;8.710;2024-03-22T12:05:01;8.93;;;7.47;;
40953;SDS011;26686;50.130;8.710;2024-03-22T12:10:04;11.25;;;7.35;;
40953;SDS011;26686;50.130;8.710;2024-03-22T12:15:05;7.75;;;6.75;;
40953;SDS011;26686;50.130;8.710;2024-03-22T12:20:08;7.75;;;6.95;;
40953;SDS011;26686;50.130;8.710;2024-03-22T12:25:11;7.55;;;6.13;;
40953;SDS011;26686;50.130;8.710;2024-03-22T12:30:14;9.43;;;8.02;;
40953;SDS011;26686;50.130;8.710;2024-03-22T12:35:15;10.85;;;7.53;;
40953;SDS011;26686;50.130;8.710;2024-03-22T12:40:16;8.43;;;7.57;;
40953;SDS011;26686;50.130;8.710;2024-03-22T12:45:16;9.73;;;6.43;;
40953;SDS011;26686;50.130;8.710;2024-03-22T12:50:17;10.15;;;7.38;;
40953;SDS011;26686;50.130;8.710;2024-03-22T12:55:18;10.27;;;8.38;;
40953;SDS011;26686;50.130;8.710;2024-03-22T13:00:18;9.90;;;7.97;;
40953;SDS011;26686;50.130;8.710;2024-03-22T13:05:19;10.05;;;7.40;;
40953;SDS011;26686;50.130;8.710;2024-03-22T13:10:20;9.68;;;7.28;;
40953;SDS011;26686;50.130;8.710;2024-03-22T13:15:21;6.88;;;6.10;;
40953;SDS011;26686;50.130;8.710;2024-03-22T13:20:22;9.82;;;8.20;;
40953;SDS011;26686;50.130;8.710;2024-03-22T13:25:22;9.50;;;8.30;;
40953;SDS011;26686;50.130;8.710;2024-03-22T13:30:23;10.80;;;7.25;;
40953;SDS011;26686;50.130;8.710;2024-03-22T13:35:23;9.38;;;7.55;;
40953;SDS011;26686;50.130;8.710;2024-03-22T13:40:24;9.45;;;6.97;;
40953;SDS011;26686;50.130;8.710;2024-03-22T13:45:24;7.82;;;6.35;;
40953;SDS011;26686;50.130;8.710;2024-03-22T13:50:26;8.52;;;7.05;;
40953;SDS011;26686;50.130;8.710;2024-03-22T13:55:27;8.40;;;7.60;;
40953;SDS011;26686;50.130;8.710;2024-03-22T14:00:27;7.63;;;6.93;;
40953;SDS011;26686;50.130;8.710;2024-03-22T14:05:28;9.68;;;8.23;;
40953;SDS011;26686;50.130;8.710;2024-03-22T14:10:29;13.48;;;9.23;;
40953;SDS011;26686;50.130;8.710;2024-03-22T14:20:35;8.18;;;7.30;;
40953;SDS011;26686;50.130;8.710;2024-03-22T14:25:35;9.27;;;7.63;;
40953;SDS011;26686;50.130;8.710;2024-03-22T14:30:36;10.55;;;8.68;;
40953;SDS011;26686;50.130;8.710;2024-03-22T14:35:36;9.48;;;8.40;;
40953;SDS011;26686;50.130;8.710;2024-03-22T14:40:38;9.25;;;8.20;;
40953;SDS011;26686;50.130;8.710;2024-03-22T14:45:38;11.10;;;9.43;;
40953;SDS011;26686;50.130;8.710;2024-03-22T14:50:40;9.77;;;8.50;;
40953;SDS011;26686;50.130;8.710;2024-03-22T14:55:40;10.50;;;8.65;;
40953;SDS011;26686;50.130;8.710;2024-03-22T15:00:41;8.95;;;7.50;;
40953;SDS011;26686;50.130;8.710;2024-03-22T15:05:42;9.30;;;8.07;;
40953;SDS011;26686;50.130;8.710;2024-03-22T15:10:43;8.93;;;8.02;;
40953;SDS011;26686;50.130;8.710;2024-03-22T15:15:54;9.48;;;8.52;;
40953;SDS011;26686;50.130;8.710;2024-03-22T15:20:59;9.63;;;8.23;;
40953;SDS011;26686;50.130;8.710;2024-03-22T15:26:01;12.07;;;8.95;;
40953;SDS011;26686;50.130;8.710;2024-03-22T15:31:03;11.60;;;10.10;;
40953;SDS011;26686;50.130;8.710;2024-03-22T15:36:03;11.80;;;9.38;;
40953;SDS011;26686;50.130;8.710;2024-03-22T15:41:04;12.73;;;9.90;;
40953;SDS011;26686;50.130;8.710;2024-03-22T15:46:05;15.32;;;9.93;;
40953;SDS011;26686;50.130;8.710;2024-03-22T15:51:05;13.48;;;9.88;;
40953;SDS011;26686;50.130;8.710;2024-03-22T15:56:05;13.57;;;10.70;;
40953;SDS011;26686;50.130;8.710;2024-03-22T16:01:08;14.20;;;10.38;;
40953;SDS011;26686;50.130;8.710;2024-03-22T16:06:09;11.63;;;9.70;;
40953;SDS011;26686;50.130;8.710;2024-03-22T16:11:09;13.88;;;11.80;;
40953;SDS011;26686;50.130;8.710;2024-03-22T16:16:10;13.18;;;11.20;;
40953;SDS011;26686;50.130;8.710;2024-03-22T16:21:11;12.93;;;11.50;;
40953;SDS011;26686;50.130;8.710;2024-03-22T16:26:13;13.18;;;11.63;;
40953;SDS011;26686;50.130;8.710;2024-03-22T16:31:15;13.40;;;11.43;;
40953;SDS011;26686;50.130;8.710;2024-03-22T16:36:16;13.57;;;10.40;;
40953;SDS011;26686;50.130;8.710;2024-03-22T16:41:16;15.15;;;11.70;;
40953;SDS011;26686;50.130;8.710;2024-03-22T16:46:17;11.53;;;10.43;;
40953;SDS011;26686;50.130;8.710;2024-03-22T16:51:17;10.73;;;9.65;;
40953;SDS011;26686;50.130;8.710;2024-03-22T16:56:19;13.80;;;11.27;;
40953;SDS011;26686;50.130;8.710;2024-03-22T17:01:20;11.77;;;10.57;;
40953;SDS011;26686;50.130;8.710;2024-03-22T17:06:20;11.55;;;10.48;;
40953;SDS011;26686;50.130;8.710;2024-03-22T17:11:22;12.75;;;11.05;;
40953;SDS011;26686;50.130;8.710;2024-03-22T17:16:24;11.70;;;10.25;;
40953;SDS011;26686;50.130;8.710;2024-03-22T17:21:25;10.90;;;9.80;;
40953;SDS011;26686;50.130;8.710;2024-03-22T17:26:25;11.53;;;10.40;;
40953;SDS011;26686;50.130;8.710;2024-03-22T17:31:26;11.75;;;10.52;;
40953;SDS011;26686;50.130;8.710;2024-03-22T17:36:26;10.48;;;9.40;;
40953;SDS011;26686;50.130;8.710;2024-03-22T17:41:27;10.27;;;9.25;;
40953;SDS011;26686;50.130;8.710;2024-03-22T17:46:28;11.93;;;10.73;;
40953;SDS011;26686;50.130;8.710;2024-03-22T17:51:28;10.50;;;9.40;;
40953;SDS011;26686;50.130;8.710;2024-03-22T17:56:30;12.25;;;10.57;;
40953;SDS011;26686;50.130;8.710;2024-03-22T18:01:30;12.25;;;10.93;;
40953;SDS011;26686;50.130;8.710;2024-03-22T18:06:34;10.57;;;9.57;;
40953;SDS011;26686;50.130;8.710;2024-03-22T18:11:34;10.95;;;9.85;;
40953;SDS011;26686;50.130;8.710;2024-03-22T18:16:35;12.48;;;10.90;;
40953;SDS011;26686;50.130;8.710;2024-03-22T18:21:36;12.45;;;11.00;;
40953;SDS011;26686;50.130;8.710;2024-03-22T18:26:40;12.55;;;11.20;;
40953;SDS011;26686;50.130;8.710;2024-03-22T18:31:41;11.02;;;9.90;;
40953;SDS011;26686;50.130;8.710;2024-03-22T18:36:43;11.45;;;10.25;;
40953;SDS011;26686;50.130;8.710;2024-03-22T18:41:43;11.82;;;10.57;;
40953;SDS011;26686;50.130;8.710;2024-03-22T18:46:44;14.68;;;11.90;;
40953;SDS011;26686;50.130;8.710;2024-03-22T18:51:47;13.02;;;11.73;;
40953;SDS011;26686;50.130;8.710;2024-03-22T18:56:48;14.10;;;12.10;;
40953;SDS011;26686;50.130;8.710;2024-03-22T19:01:50;13.98;;;12.38;;
40953;SDS011;26686;50.130;8.710;2024-03-22T19:06:50;15.85;;;12.35;;
40953;SDS011;26686;50.130;8.710;2024-03-22T19:11:51;13.13;;;11.77;;
40953;SDS011;26686;50.130;8.710;2024-03-22T19:16:52;14.90;;;13.48;;
40953;SDS011;26686;50.130;8.710;2024-03-22T19:21:52;13.93;;;12.52;;
40953;SDS011;26686;50.130;8.710;2024-03-22T19:26:53;16.98;;;13.88;;
40953;SDS011;26686;50.130;8.710;2024-03-22T19:31:53;14.95;;;12.70;;
40953;SDS011;26686;50.130;8.710;2024-03-22T19:36:54;15.18;;;12.98;;
40953;SDS011;26686;50.130;8.710;2024-03-22T19:41:54;15.23;;;13.57;;
40953;SDS011;26686;50.130;8.710;2024-03-22T19:46:58;19.90;;;14.67;;
40953;SDS011;26686;50.130;8.710;2024-03-22T19:52:02;20.75;;;17.80;;
40953;SDS011;26686;50.130;8.710;2024-03-22T19:57:02;16.42;;;14.52;;
40953;SDS011;26686;50.130;8.710;2024-03-22T20:02:04;16.38;;;14.60;;
40953;SDS011;26686;50.130;8.710;2024-03-22T20:07:06;15.68;;;14.05;;
40953;SDS011;26686;50.130;8.710;2024-03-22T20:12:07;16.52;;;14.85;;
40953;SDS011;26686;50.130;8.710;2024-03-22T20:17:07;18.30;;;15.35;;
40953;SDS011;26686;50.130;8.710;2024-03-22T20:22:08;17.25;;;15.55;;
40953;SDS011;26686;50.130;8.710;2024-03-22T20:27:09;17.13;;;15.30;;
40953;SDS011;26686;50.130;8.710;2024-03-22T20:32:10;17.75;;;14.80;;
40953;SDS011;26686;50.130;8.710;2024-03-22T20:37:11;16.23;;;14.63;;
